Time;durP1;ratioP1;P1;durP2;ratioP2;P2;SDS_P1;SDS_P2;PMS_P1;PMS_P2;Temp;Humidity;BMP_temperature;BMP_pressure;BME280_temperature;BME280_humidity;BME280_pressure;Samples;Min_cycle;Max_cycle;Signal;HPM_P1;HPM_P2
2022/05/06 03:02:01;;;;;;;1.83;1.73;;;15.20;76.00;;;;;;5456149;23;20542;-77
2022/05/06 03:04:27;;;;;;;1.90;1.80;;;15.30;75.90;;;;;;4996448;28;20444;-77
2022/05/06 03:06:55;;;;;;;1.73;1.63;;;15.20;76.10;;;;;;4996384;28;20445;-77
2022/05/06 03:09:22;;;;;;;2.10;2.00;;;15.20;76.00;;;;;;4996328;28;20547;-77
2022/05/06 03:11:48;;;;;;;1.90;1.80;;;15.20;76.30;;;;;;4996230;28;20536;-77
2022/05/06 03:14:18;;;;;;;1.90;1.80;;;15.20;76.30;;;;;;4997261;28;20910;-75
2022/05/06 03:16:45;;;;;;;1.90;1.80;;;15.20;76.10;;;;;;4995837;28;20916;-77
2022/05/06 03:19:13;;;;;;;2.07;1.97;;;15.20;76.30;;;;;;4995951;28;20810;-76
2022/05/06 03:21:40;;;;;;;1.77;1.67;;;15.20;76.40;;;;;;4995676;28;21016;-77
2022/05/06 03:24:07;;;;;;;1.67;1.57;;;15.20;76.40;;;;;;4996000;28;20453;-77
2022/05/06 03:26:34;;;;;;;1.60;1.50;;;15.20;76.10;;;;;;4995923;28;20460;-77
2022/05/06 03:29:01;;;;;;;1.70;1.60;;;15.30;76.10;;;;;;4995561;28;20452;-77
2022/05/06 03:31:28;;;;;;;1.63;1.53;;;15.20;76.10;;;;;;4995859;28;20469;-77
2022/05/06 03:33:55;;;;;;;1.83;1.73;;;15.30;76.10;;;;;;4995764;28;20527;-77
2022/05/06 03:36:25;;;;;;;1.60;1.50;;;15.10;76.20;;;;;;4995424;28;21007;-77
2022/05/06 03:38:51;;;;;;;1.60;1.50;;;15.00;76.70;;;;;;4995455;28;20932;-77
2022/05/06 03:41:18;;;;;;;1.60;1.50;;;15.10;76.60;;;;;;4995549;28;20499;-77
2022/05/06 03:43:45;;;;;;;1.70;1.60;;;15.10;76.60;;;;;;4995597;28;20539;-77
2022/05/06 03:46:11;;;;;;;1.70;1.60;;;15.10;76.50;;;;;;4995514;28;20496;-77
2022/05/06 03:48:38;;;;;;;1.50;1.47;;;15.10;76.50;;;;;;4995479;28;20449;-77
2022/05/06 03:51:23;;;;;;;1.57;1.53;;;15.10;76.60;;;;;;4995434;28;20469;-77
2022/05/06 03:53:53;;;;;;;1.70;1.60;;;15.00;76.90;;;;;;4995382;28;20505;-77
2022/05/06 03:56:22;;;;;;;1.47;1.37;;;15.00;77.00;;;;;;4994430;28;20503;-77
2022/05/06 03:58:49;;;;;;;1.90;1.80;;;15.10;76.80;;;;;;4995300;28;20892;-77
2022/05/06 04:01:18;;;;;;;1.83;1.73;;;15.00;76.90;;;;;;4994918;28;20571;-77
2022/05/06 04:03:44;;;;;;;1.57;1.53;;;15.00;77.10;;;;;;4994994;28;20995;-77
2022/05/06 04:06:13;;;;;;;1.60;1.50;;;15.00;76.80;;;;;;4995194;28;20504;-77
2022/05/06 04:08:41;;;;;;;1.97;1.87;;;15.10;76.80;;;;;;4995087;28;20448;-77
2022/05/06 04:11:09;;;;;;;1.97;1.87;;;15.00;76.90;;;;;;4994988;28;20473;-77
2022/05/06 04:13:36;;;;;;;1.80;1.70;;;15.00;77.00;;;;;;4994943;28;20489;-77
2022/05/06 04:16:03;;;;;;;1.80;1.70;;;15.00;77.00;;;;;;4995015;28;20448;-77
2022/05/06 04:18:30;;;;;;;1.60;1.50;;;14.80;77.30;;;;;;4995003;28;20521;-77
2022/05/06 04:23:41;;;;;;;1.30;1.30;;;14.90;77.30;;;;;;4994635;28;20412;-77
2022/05/06 04:26:11;;;;;;;1.37;1.27;;;15.00;77.40;;;;;;4994876;28;20456;-77
2022/05/06 04:28:38;;;;;;;2.00;1.90;;;15.00;77.30;;;;;;4994810;28;20873;-77
2022/05/06 04:31:05;;;;;;;1.63;1.53;;;15.00;77.10;;;;;;4994326;28;20477;-77
2022/05/06 04:33:33;;;;;;;1.90;1.80;;;15.10;77.20;;;;;;4994609;28;20957;-77
2022/05/06 04:36:00;;;;;;;1.50;1.40;;;15.00;77.30;;;;;;4994758;28;20500;-77
2022/05/06 04:38:27;;;;;;;1.30;1.30;;;15.10;77.30;;;;;;4994371;28;20944;-77
2022/05/06 04:40:55;;;;;;;1.60;1.50;;;15.10;77.10;;;;;;4994527;28;20469;-77
2022/05/06 04:43:24;;;;;;;1.50;1.50;;;15.10;77.10;;;;;;4994635;28;20441;-77
2022/05/06 04:45:50;;;;;;;1.67;1.57;;;15.10;77.30;;;;;;4994449;28;20451;-77
2022/05/06 04:48:17;;;;;;;1.37;1.37;;;15.10;77.30;;;;;;4994386;28;20449;-77
2022/05/06 04:50:45;;;;;;;1.70;1.60;;;15.10;77.30;;;;;;4994000;28;20820;-77
2022/05/06 04:53:12;;;;;;;1.50;1.40;;;15.10;77.40;;;;;;4994000;28;20572;-77
2022/05/06 04:55:41;;;;;;;1.40;1.30;;;15.20;77.30;;;;;;4994322;28;20468;-77
2022/05/06 04:58:09;;;;;;;1.30;1.30;;;15.20;77.30;;;;;;4994324;28;20507;-77
2022/05/06 05:00:37;;;;;;;1.43;1.37;;;15.10;77.60;;;;;;4994073;28;20453;-77
2022/05/06 05:03:05;;;;;;;1.60;1.50;;;15.10;77.70;;;;;;4994249;28;20500;-77
2022/05/06 05:05:32;;;;;;;1.40;1.40;;;15.10;77.70;;;;;;4994173;28;20453;-77
2022/05/06 05:07:58;;;;;;;1.43;1.33;;;15.00;78.00;;;;;;4993904;28;20445;-77
2022/05/06 05:10:25;;;;;;;1.33;1.27;;;15.10;78.10;;;;;;4994092;28;20917;-77
2022/05/06 05:12:52;;;;;;;1.60;1.50;;;15.00;78.20;;;;;;4993715;28;20996;-77
2022/05/06 05:15:19;;;;;;;1.60;1.50;;;15.10;78.10;;;;;;4994072;28;20514;-77
2022/05/06 05:17:48;;;;;;;1.27;1.27;;;15.10;78.00;;;;;;4993720;28;20449;-77
2022/05/06 05:20:15;;;;;;;1.63;1.57;;;15.10;78.10;;;;;;4993800;28;21019;-77
2022/05/06 05:22:42;;;;;;;1.63;1.53;;;15.20;78.00;;;;;;4993888;28;20473;-77
2022/05/06 05:25:09;;;;;;;1.30;1.27;;;15.10;78.10;;;;;;4993720;28;20855;-77
2022/05/06 05:27:37;;;;;;;1.67;1.57;;;15.10;78.30;;;;;;4993594;28;20457;-78
2022/05/06 05:30:06;;;;;;;1.27;1.20;;;15.00;78.80;;;;;;4993891;28;20484;-77
2022/05/06 05:32:33;;;;;;;1.63;1.53;;;15.00;78.80;;;;;;4993837;28;20468;-74
2022/05/06 05:35:01;;;;;;;1.20;1.20;;;15.00;79.40;;;;;;4993801;28;20539;-74
2022/05/06 05:37:28;;;;;;;1.70;1.60;;;15.00;79.30;;;;;;4993832;28;20449;-74
2022/05/06 05:39:55;;;;;;;1.40;1.40;;;15.00;79.10;;;;;;4993841;28;20451;-74
2022/05/06 05:42:22;;;;;;;1.80;1.70;;;15.10;79.00;;;;;;4993732;28;20500;-74
2022/05/06 05:50:19;;;;;;;1.10;1.10;;;15.10;78.60;;;;;;4993685;28;20491;-77
2022/05/06 05:52:46;;;;;;;1.23;1.17;;;15.10;78.60;;;;;;4993459;28;20901;-77
2022/05/06 05:55:14;;;;;;;1.60;1.50;;;15.10;78.60;;;;;;4993831;28;20507;-76
2022/05/06 05:57:41;;;;;;;1.20;1.20;;;15.10;78.50;;;;;;4993395;28;20967;-76
2022/05/06 06:00:09;;;;;;;1.27;1.27;;;15.00;78.50;;;;;;4993659;28;20508;-77
2022/05/06 06:02:36;;;;;;;1.50;1.40;;;15.00;78.70;;;;;;4993266;28;20480;-76
2022/05/06 06:05:03;;;;;;;1.30;1.30;;;15.00;78.50;;;;;;4993708;28;20441;-76
2022/05/06 06:07:31;;;;;;;1.17;1.07;;;15.00;78.80;;;;;;4993623;28;20452;-76
2022/05/06 06:09:58;;;;;;;1.20;1.10;;;14.90;78.80;;;;;;4993535;28;20453;-77
2022/05/06 06:12:25;;;;;;;1.30;1.20;;;15.00;78.90;;;;;;4993503;28;20523;-77
2022/05/06 06:14:55;;;;;;;1.10;1.10;;;15.00;78.70;;;;;;4993442;28;20489;-76
2022/05/06 06:17:22;;;;;;;1.40;1.30;;;15.00;78.60;;;;;;4993548;28;20855;-76
2022/05/06 06:19:48;;;;;;;1.20;1.20;;;15.00;78.70;;;;;;4995559;28;20445;-76
2022/05/06 06:22:15;;;;;;;1.40;1.40;;;15.00;78.60;;;;;;4997013;28;20468;-76
2022/05/06 06:24:43;;;;;;;1.50;1.40;;;14.90;79.00;;;;;;4996872;28;20523;-75
2022/05/06 06:27:10;;;;;;;1.40;1.30;;;14.90;79.10;;;;;;4996934;28;20453;-77
2022/05/06 06:29:36;;;;;;;1.30;1.20;;;14.90;79.10;;;;;;4996875;28;20457;-77
2022/05/06 06:32:03;;;;;;;1.67;1.57;;;14.90;79.30;;;;;;4996754;28;20491;-77
2022/05/06 06:34:30;;;;;;;1.20;1.20;;;14.90;79.20;;;;;;4996347;28;20536;-77
2022/05/06 06:36:56;;;;;;;1.30;1.30;;;14.90;79.20;;;;;;4996731;28;20453;-77
2022/05/06 06:39:23;;;;;;;1.30;1.30;;;14.90;79.10;;;;;;4996708;28;20449;-77
2022/05/06 06:41:51;;;;;;;1.23;1.23;;;14.90;78.50;;;;;;4996655;28;20468;-77
2022/05/06 06:44:18;;;;;;;1.23;1.23;;;14.90;78.60;;;;;;4996384;28;20445;-77
2022/05/06 06:46:44;;;;;;;1.23;1.17;;;14.90;78.60;;;;;;4996688;28;20445;-77
2022/05/06 06:49:11;;;;;;;1.70;1.60;;;15.00;78.30;;;;;;4996622;28;20453;-77
2022/05/06 06:51:38;;;;;;;1.20;1.20;;;14.70;78.90;;;;;;4996554;28;20469;-77
2022/05/06 06:54:05;;;;;;;1.70;1.60;;;14.70;79.30;;;;;;4996513;28;20535;-76
2022/05/06 06:56:31;;;;;;;1.20;1.20;;;14.80;79.10;;;;;;4996517;28;20539;-77
2022/05/06 06:58:59;;;;;;;1.40;1.30;;;14.80;78.70;;;;;;4996548;28;20516;-77
2022/05/06 07:01:26;;;;;;;1.40;1.30;;;14.80;78.70;;;;;;4996195;28;20495;-76
2022/05/06 07:03:53;;;;;;;1.30;1.20;;;14.80;78.50;;;;;;4996464;28;20496;-77
2022/05/06 07:11:54;;;;;;;1.57;1.47;;;14.70;78.70;;;;;;5000054;28;20530;-77
2022/05/06 07:14:23;;;;;;;1.80;1.70;;;14.70;79.10;;;;;;4999601;28;20465;-77
2022/05/06 07:16:51;;;;;;;1.70;1.60;;;14.70;78.70;;;;;;5000111;28;20491;-77
2022/05/06 07:19:20;;;;;;;1.10;1.10;;;14.70;78.30;;;;;;4999896;28;20445;-77
2022/05/06 07:21:49;;;;;;;2.47;1.83;;;14.80;78.50;;;;;;4999477;28;20576;-76
2022/05/06 07:24:16;;;;;;;1.50;1.40;;;14.60;77.80;;;;;;4999310;28;20471;-76
2022/05/06 07:26:43;;;;;;;1.27;1.27;;;14.70;77.60;;;;;;4999090;28;20457;-76
2022/05/06 07:29:10;;;;;;;1.50;1.40;;;14.70;77.30;;;;;;4999493;28;20845;-76
2022/05/06 07:31:38;;;;;;;1.30;1.30;;;14.80;76.90;;;;;;4999052;28;20476;-76
2022/05/06 07:34:04;;;;;;;1.10;1.10;;;14.70;76.20;;;;;;4999075;28;20551;-77
2022/05/06 07:36:31;;;;;;;1.10;1.10;;;14.60;76.90;;;;;;4998670;28;20499;-76
2022/05/06 07:38:57;;;;;;;1.33;1.23;;;14.70;76.30;;;;;;4998137;28;20445;-77
2022/05/06 07:41:24;;;;;;;1.30;1.03;;;14.80;76.00;;;;;;4999869;28;20523;-78
2022/05/06 07:43:51;;;;;;;1.40;1.30;;;14.70;75.80;;;;;;5001928;28;20468;-76
2022/05/06 07:46:17;;;;;;;1.20;1.20;;;14.60;76.30;;;;;;5002233;28;20476;-76
2022/05/06 07:48:46;;;;;;;1.00;1.00;;;14.60;76.00;;;;;;5002092;28;20453;-76
2022/05/06 07:51:12;;;;;;;1.47;1.37;;;14.60;76.60;;;;;;5002011;28;20560;-76
2022/05/06 07:53:39;;;;;;;1.23;1.20;;;14.70;76.40;;;;;;4997687;28;20453;-76
2022/05/06 07:56:06;;;;;;;1.30;1.20;;;14.80;76.00;;;;;;4995592;28;20449;-77
2022/05/06 07:58:33;;;;;;;1.20;1.20;;;14.80;76.40;;;;;;4995431;28;20496;-77
2022/05/06 08:00:59;;;;;;;1.07;1.07;;;14.90;75.40;;;;;;4995303;28;20481;-77
2022/05/06 08:06:12;;;;;;;1.20;1.20;;;14.80;75.30;;;;;;4995422;28;20397;-77
2022/05/06 08:08:38;;;;;;;1.07;1.07;;;14.80;75.30;;;;;;4995308;28;20453;-77
2022/05/06 08:11:05;;;;;;;1.10;1.10;;;14.80;75.40;;;;;;4995704;28;20912;-77
2022/05/06 08:13:32;;;;;;;1.43;1.33;;;14.90;75.10;;;;;;4995930;28;20453;-76
2022/05/06 08:15:59;;;;;;;1.07;1.07;;;14.90;75.30;;;;;;4996957;28;20458;-78
2022/05/06 08:18:26;;;;;;;1.13;1.00;;;15.00;75.00;;;;;;4996307;28;20792;-77
2022/05/06 08:20:53;;;;;;;1.20;1.20;;;15.00;74.80;;;;;;4997095;28;20474;-77
2022/05/06 08:23:22;;;;;;;1.00;1.00;;;15.00;74.70;;;;;;4995849;28;20456;-77
2022/05/06 08:25:49;;;;;;;1.10;1.10;;;15.00;75.10;;;;;;4995506;28;20456;-76
2022/05/06 08:28:17;;;;;;;1.00;1.00;;;15.00;74.80;;;;;;4995228;28;20453;-77
2022/05/06 08:30:44;;;;;;;1.10;1.10;;;15.00;74.50;;;;;;4995351;28;20564;-75
2022/05/06 08:33:11;;;;;;;1.03;1.03;;;14.80;74.40;;;;;;4995397;28;20453;-77
2022/05/06 08:35:37;;;;;;;1.10;1.10;;;14.90;74.90;;;;;;4995355;28;20589;-77
2022/05/06 08:38:05;;;;;;;1.27;1.17;;;14.90;74.50;;;;;;4996102;28;20446;-78
2022/05/06 08:40:35;;;;;;;1.33;1.23;;;14.90;74.70;;;;;;4995503;28;20508;-77
2022/05/06 08:43:03;;;;;;;1.33;1.10;;;15.00;73.60;;;;;;4995380;28;20437;-78
2022/05/06 08:51:01;;;;;;;1.20;1.10;;;15.50;73.50;;;;;;4994975;28;20960;-77
2022/05/06 08:53:29;;;;;;;1.07;1.07;;;15.50;73.60;;;;;;4995553;28;20455;-77
2022/05/06 08:55:58;;;;;;;1.20;1.10;;;15.50;72.90;;;;;;4995974;28;20492;-77
2022/05/06 08:58:27;;;;;;;1.03;1.00;;;15.60;72.20;;;;;;4995533;28;20533;-77
2022/05/06 09:01:02;;;;;;;1.00;0.90;;;15.60;72.40;;;;;;4995267;28;20857;-77
2022/05/06 09:03:29;;;;;;;0.83;0.83;;;15.60;72.00;;;;;;4995371;28;20573;-77
2022/05/06 09:05:58;;;;;;;1.30;1.20;;;15.50;71.70;;;;;;4994708;28;20441;-77
2022/05/06 09:08:36;;;;;;;1.00;1.00;;;15.50;72.20;;;;;;4994976;28;20485;-77
2022/05/06 09:11:07;;;;;;;1.10;1.00;;;15.60;72.70;;;;;;4994452;28;20559;-77
2022/05/06 09:13:35;;;;;;;0.90;0.90;;;15.70;72.30;;;;;;4994809;28;20437;-77
2022/05/06 09:19:10;;;;;;;0.83;0.83;;;15.80;72.20;;;;;;4993832;28;20417;-68
2022/05/06 09:21:37;;;;;;;1.00;0.90;;;15.70;71.90;;;;;;4993646;28;20445;-68
2022/05/06 09:24:16;;;;;;;0.87;0.87;;;15.90;72.00;;;;;;4993665;28;20449;-68
2022/05/06 09:26:57;;;;;;;0.83;0.80;;;15.90;71.60;;;;;;4993431;28;20547;-68
2022/05/06 09:29:35;;;;;;;1.00;1.00;;;15.80;71.00;;;;;;4993595;28;20443;-69
2022/05/06 09:32:19;;;;;;;0.80;0.80;;;15.90;71.20;;;;;;4993248;28;20441;-69
2022/05/06 09:34:48;;;;;;;0.90;0.90;;;16.00;71.40;;;;;;4993150;28;20495;-69
2022/05/06 09:37:46;;;;;;;0.70;0.70;;;16.00;71.10;;;;;;4993435;28;20453;-68
2022/05/06 09:40:15;;;;;;;1.00;1.00;;;16.10;70.30;;;;;;4952201;29;20435;-68
2022/05/06 09:42:44;;;;;;;1.10;1.00;;;16.20;70.20;;;;;;4984329;28;20469;-69
2022/05/06 09:45:13;;;;;;;0.90;0.90;;;16.30;70.80;;;;;;4993264;28;20469;-69
2022/05/06 09:47:41;;;;;;;1.00;1.00;;;16.20;70.30;;;;;;4993484;28;20453;-68
2022/05/06 09:50:09;;;;;;;1.03;0.93;;;16.30;70.70;;;;;;4993475;28;20441;-69
2022/05/06 09:52:37;;;;;;;0.90;0.90;;;16.40;70.40;;;;;;4993545;28;20473;-69
2022/05/06 09:55:06;;;;;;;0.80;0.80;;;16.40;69.40;;;;;;4996445;28;20489;-69
2022/05/06 09:57:35;;;;;;;2.53;1.10;;;16.50;70.10;;;;;;4996840;28;20876;-68
2022/05/06 10:00:05;;;;;;;1.03;1.03;;;16.50;69.80;;;;;;4996914;28;20823;-69
2022/05/06 10:02:36;;;;;;;0.93;0.93;;;16.50;69.30;;;;;;4996452;28;20964;-68
2022/05/06 10:05:03;;;;;;;1.17;0.90;;;16.60;69.10;;;;;;4997179;28;20784;-68
2022/05/06 10:07:30;;;;;;;0.80;0.80;;;16.70;70.10;;;;;;4996484;28;20978;-68
2022/05/06 10:10:01;;;;;;;0.80;0.80;;;16.90;69.70;;;;;;4997087;28;20507;-70
2022/05/06 10:12:32;;;;;;;1.10;0.90;;;17.20;68.80;;;;;;4997098;28;20445;-68
2022/05/06 10:15:02;;;;;;;0.97;0.97;;;17.40;67.60;;;;;;4996449;28;20484;-69
2022/05/06 10:17:51;;;;;;;0.80;0.80;;;17.60;66.90;;;;;;4996847;28;20944;-68
2022/05/06 10:20:49;;;;;;;1.10;1.10;;;17.70;66.50;;;;;;4997003;28;20434;-68
2022/05/06 10:23:18;;;;;;;1.10;1.10;;;17.90;65.90;;;;;;4996592;28;20448;-68
2022/05/06 10:25:55;;;;;;;0.97;0.87;;;18.10;64.10;;;;;;4996409;28;20964;-69
2022/05/06 10:34:34;;;;;;;1.00;1.00;;;18.40;65.20;;;;;;4996068;28;20913;-70
2022/05/06 10:37:04;;;;;;;1.03;1.00;;;18.30;64.90;;;;;;4996498;28;20459;-70
2022/05/06 10:39:36;;;;;;;0.83;0.83;;;18.40;66.10;;;;;;4996226;28;20448;-70
2022/05/06 10:42:05;;;;;;;0.87;0.80;;;18.50;63.90;;;;;;4996753;28;20445;-70
2022/05/06 10:44:34;;;;;;;0.90;0.90;;;18.70;64.00;;;;;;4996289;28;20445;-70
2022/05/06 10:47:01;;;;;;;0.90;0.90;;;18.70;62.60;;;;;;4996411;28;20449;-70
2022/05/06 10:49:53;;;;;;;0.90;0.90;;;18.70;64.20;;;;;;4996313;28;20500;-70
2022/05/06 10:52:53;;;;;;;0.90;0.90;;;18.90;64.20;;;;;;4996108;28;20805;-70
2022/05/06 10:55:21;;;;;;;1.10;0.90;;;19.20;63.00;;;;;;4995981;28;20539;-68
2022/05/06 10:57:57;;;;;;;0.80;0.80;;;19.30;62.50;;;;;;4995937;28;20449;-68
2022/05/06 11:00:25;;;;;;;1.00;1.00;;;19.30;63.10;;;;;;4995993;28;20433;-71
2022/05/06 11:02:52;;;;;;;0.90;0.90;;;19.10;63.10;;;;;;4995879;28;20527;-70
2022/05/06 11:05:24;;;;;;;1.20;1.10;;;19.20;63.30;;;;;;4995385;28;20478;-69
2022/05/06 11:07:55;;;;;;;0.97;0.90;;;19.30;64.20;;;;;;4995867;28;20453;-69
2022/05/06 11:10:23;;;;;;;2.03;1.30;;;19.30;63.00;;;;;;4995776;28;20499;-69
2022/05/06 11:12:51;;;;;;;1.03;1.00;;;19.60;62.00;;;;;;4995649;28;20512;-70
2022/05/06 11:15:21;;;;;;;1.00;1.00;;;19.60;62.60;;;;;;4995119;28;20496;-70
2022/05/06 11:17:49;;;;;;;0.90;0.90;;;19.80;61.50;;;;;;4995524;28;20453;-70
2022/05/06 11:20:18;;;;;;;1.10;1.00;;;19.90;60.80;;;;;;4995527;28;20515;-70
2022/05/06 11:23:00;;;;;;;2.27;0.90;;;19.80;61.90;;;;;;4995546;28;20480;-70
2022/05/06 11:25:32;;;;;;;0.80;0.80;;;20.00;61.00;;;;;;4995421;28;20469;-70
2022/05/06 11:28:00;;;;;;;1.20;1.10;;;20.00;61.00;;;;;;4995680;28;20438;-70
2022/05/06 11:30:29;;;;;;;0.80;0.80;;;20.00;60.10;;;;;;4996258;28;20453;-70
2022/05/06 11:32:58;;;;;;;0.77;0.77;;;19.80;61.30;;;;;;4995374;28;20484;-69
2022/05/06 11:35:33;;;;;;;0.90;0.90;;;19.80;61.00;;;;;;4995032;28;20497;-70
2022/05/06 11:38:02;;;;;;;1.73;1.00;;;20.10;60.10;;;;;;4995116;28;20539;-68
2022/05/06 11:40:34;;;;;;;0.80;0.80;;;20.20;60.30;;;;;;4995218;28;20449;-67
2022/05/06 11:43:03;;;;;;;1.10;0.80;;;20.30;59.60;;;;;;4995555;28;20433;-68
2022/05/06 11:48:15;;;;;;;1.13;1.00;;;20.10;59.50;;;;;;4994778;28;20413;-67
2022/05/06 11:50:43;;;;;;;0.80;0.80;;;19.90;59.60;;;;;;4994929;28;20455;-68
2022/05/06 11:53:13;;;;;;;1.30;0.80;;;19.70;60.20;;;;;;4994889;28;20456;-69
2022/05/06 11:55:42;;;;;;;1.03;1.03;;;19.80;61.60;;;;;;4994587;28;20497;-70
2022/05/06 11:58:13;;;;;;;1.30;0.87;;;19.70;60.40;;;;;;4994494;28;20878;-69
2022/05/06 12:00:40;;;;;;;1.10;1.00;;;19.70;60.50;;;;;;4994996;28;20437;-69
2022/05/06 12:03:09;;;;;;;1.00;1.00;;;19.70;59.40;;;;;;4994743;28;20453;-69
2022/05/06 12:05:37;;;;;;;1.30;1.20;;;19.40;59.80;;;;;;4994302;28;20846;-71
2022/05/06 12:08:04;;;;;;;0.80;0.80;;;19.40;60.80;;;;;;4994491;28;20457;-70
2022/05/06 12:10:33;;;;;;;0.90;0.90;;;19.20;60.30;;;;;;4994289;28;21007;-70
2022/05/06 12:13:01;;;;;;;0.80;0.80;;;19.00;60.80;;;;;;4994489;28;20453;-71
2022/05/06 12:15:32;;;;;;;0.90;0.90;;;18.90;61.60;;;;;;4994403;28;20497;-69
2022/05/06 12:18:07;;;;;;;1.30;1.20;;;18.90;62.30;;;;;;4993760;28;20460;-68
2022/05/06 12:20:36;;;;;;;0.80;0.80;;;19.10;60.20;;;;;;4994470;28;20441;-69
2022/05/06 12:23:04;;;;;;;0.80;0.80;;;19.20;60.60;;;;;;4995206;28;20449;-70
2022/05/06 12:25:35;;;;;;;0.87;0.80;;;19.40;61.30;;;;;;4994389;28;20469;-69
2022/05/06 12:28:10;;;;;;;0.80;0.80;;;19.50;60.90;;;;;;5003829;28;20472;-70
2022/05/06 12:30:38;;;;;;;0.70;0.70;;;19.70;60.70;;;;;;5002661;28;20457;-70
2022/05/06 12:33:07;;;;;;;0.83;0.83;;;19.70;60.60;;;;;;4998969;28;20453;-70
2022/05/06 12:35:54;;;;;;;0.80;0.80;;;19.40;60.30;;;;;;4994323;28;20524;-69
2022/05/06 12:38:21;;;;;;;1.00;0.90;;;19.40;59.40;;;;;;4994243;28;20520;-70
2022/05/06 12:40:50;;;;;;;0.90;0.90;;;19.50;60.50;;;;;;4994073;28;20468;-67
2022/05/06 12:43:25;;;;;;;0.90;0.90;;;19.70;59.50;;;;;;4994146;28;20556;-70
2022/05/06 12:45:53;;;;;;;0.87;0.87;;;19.60;59.70;;;;;;4994132;28;20539;-70
2022/05/06 12:51:04;;;;;;;0.80;0.80;;;19.60;60.20;;;;;;4994007;28;20885;-70
2022/05/06 12:53:31;;;;;;;0.80;0.80;;;19.70;60.70;;;;;;4994041;28;20453;-70
2022/05/06 12:55:59;;;;;;;0.80;0.80;;;19.80;59.30;;;;;;4993530;28;20492;-70
2022/05/06 12:58:27;;;;;;;0.73;0.73;;;19.90;59.00;;;;;;4993394;28;20956;-70
2022/05/06 13:00:55;;;;;;;0.80;0.80;;;20.10;59.20;;;;;;4993594;28;20864;-69
2022/05/06 13:03:21;;;;;;;0.70;0.70;;;20.20;59.30;;;;;;4993923;28;20549;-70
2022/05/06 13:05:48;;;;;;;0.77;0.77;;;20.10;58.70;;;;;;4993898;28;20515;-69
2022/05/06 13:08:15;;;;;;;0.80;0.80;;;20.30;58.40;;;;;;4993720;28;20503;-69
2022/05/06 13:10:42;;;;;;;1.00;0.90;;;20.50;57.60;;;;;;4993779;28;20457;-69
2022/05/06 13:13:10;;;;;;;0.90;0.90;;;20.60;58.20;;;;;;4993575;28;20539;-69
2022/05/06 13:15:37;;;;;;;0.87;0.87;;;20.60;56.80;;;;;;4993425;28;20493;-69
2022/05/06 13:18:04;;;;;;;1.47;0.80;;;20.40;57.10;;;;;;4993382;28;20964;-69
2022/05/06 13:20:31;;;;;;;1.00;0.80;;;20.40;57.40;;;;;;4993677;28;20460;-70
2022/05/06 13:22:57;;;;;;;0.70;0.70;;;20.30;57.70;;;;;;4993279;28;20945;-70
2022/05/06 13:25:24;;;;;;;0.77;0.77;;;20.30;58.10;;;;;;4993587;28;20500;-70
2022/05/06 13:27:51;;;;;;;0.90;0.90;;;20.20;57.40;;;;;;4994216;28;20965;-69
2022/05/06 13:30:19;;;;;;;0.80;0.80;;;20.40;57.90;;;;;;4998139;28;20464;-70
2022/05/06 13:32:45;;;;;;;0.70;0.70;;;20.40;57.30;;;;;;4997363;28;20937;-69
2022/05/06 13:35:12;;;;;;;0.80;0.80;;;20.40;58.10;;;;;;4997249;28;20884;-70
2022/05/06 13:37:39;;;;;;;0.90;0.90;;;20.40;58.70;;;;;;4997309;28;20855;-70
2022/05/06 13:40:07;;;;;;;0.77;0.77;;;20.60;58.60;;;;;;4997463;28;20452;-70
2022/05/06 13:42:33;;;;;;;0.70;0.70;;;20.70;57.90;;;;;;4997647;28;20452;-70
2022/05/06 13:45:00;;;;;;;1.23;1.13;;;20.70;57.00;;;;;;4997667;28;20472;-70
2022/05/06 13:47:30;;;;;;;0.90;0.90;;;20.80;57.00;;;;;;4997316;28;20941;-70
2022/05/06 13:49:57;;;;;;;0.77;0.77;;;20.80;56.80;;;;;;4997128;28;20840;-70
2022/05/06 13:52:25;;;;;;;1.53;0.90;;;20.70;56.20;;;;;;4997271;28;21011;-70
2022/05/06 13:54:52;;;;;;;0.80;0.80;;;20.60;57.30;;;;;;4997126;28;20548;-70
2022/05/06 14:00:04;;;;;;;0.73;0.73;;;20.60;58.30;;;;;;4997131;28;20404;-69
2022/05/06 14:02:32;;;;;;;0.80;0.80;;;20.60;58.50;;;;;;4997223;28;20457;-68
2022/05/06 14:04:59;;;;;;;2.50;0.80;;;20.60;57.40;;;;;;4997205;28;20477;-69
2022/05/06 14:07:25;;;;;;;1.03;0.80;;;20.60;57.30;;;;;;4997483;28;20449;-70
2022/05/06 14:09:52;;;;;;;0.80;0.80;;;20.50;58.50;;;;;;4997187;28;20448;-69
2022/05/06 14:12:19;;;;;;;0.80;0.70;;;20.40;57.00;;;;;;4997182;28;20445;-68
2022/05/06 14:14:45;;;;;;;0.90;0.90;;;20.20;58.50;;;;;;4996498;28;20480;-68
2022/05/06 14:17:12;;;;;;;0.80;0.80;;;19.90;58.40;;;;;;4996521;28;20472;-68
2022/05/06 14:19:40;;;;;;;0.70;0.70;;;20.00;59.80;;;;;;4996672;28;20540;-68
2022/05/06 14:22:07;;;;;;;0.90;0.90;;;20.00;59.30;;;;;;4996554;28;20519;-68
2022/05/06 14:24:34;;;;;;;0.80;0.80;;;20.20;59.80;;;;;;4996789;28;20449;-68
2022/05/06 14:27:01;;;;;;;1.47;0.80;;;20.30;59.60;;;;;;4996505;28;20452;-68
2022/05/06 14:29:27;;;;;;;0.80;0.80;;;20.40;58.90;;;;;;4996452;28;20465;-68
2022/05/06 14:31:55;;;;;;;0.70;0.70;;;20.50;58.90;;;;;;4996417;28;20457;-69
2022/05/06 14:34:22;;;;;;;0.80;0.80;;;20.20;58.10;;;;;;4995948;28;20882;-69
2022/05/06 14:36:50;;;;;;;0.70;0.70;;;20.20;57.70;;;;;;4996216;28;20572;-68
2022/05/06 14:39:17;;;;;;;1.07;0.97;;;20.20;59.00;;;;;;4995495;28;20863;-69
2022/05/06 14:41:44;;;;;;;0.77;0.77;;;20.30;57.40;;;;;;4995941;28;20503;-68
2022/05/06 14:44:10;;;;;;;0.70;0.70;;;20.20;58.30;;;;;;4996225;28;20453;-68
2022/05/06 14:46:37;;;;;;;0.90;0.80;;;20.30;58.10;;;;;;4996164;28;20465;-68
2022/05/06 14:49:06;;;;;;;0.83;0.83;;;20.20;57.60;;;;;;4995718;28;20917;-68
2022/05/06 14:51:34;;;;;;;0.80;0.80;;;20.20;58.50;;;;;;4995837;28;20821;-69
2022/05/06 14:54:02;;;;;;;1.50;0.70;;;20.30;58.10;;;;;;4995930;28;20483;-68
2022/05/06 14:56:29;;;;;;;0.70;0.70;;;20.20;57.20;;;;;;4995524;28;20516;-68
2022/05/06 14:58:56;;;;;;;0.70;0.70;;;20.20;58.10;;;;;;4995967;28;20631;-69
2022/05/06 15:01:22;;;;;;;0.70;0.70;;;20.40;58.60;;;;;;4995942;28;20533;-69
2022/05/06 15:03:49;;;;;;;0.90;0.90;;;20.40;59.20;;;;;;4995670;28;20822;-68
2022/05/06 15:06:16;;;;;;;1.00;0.90;;;20.30;57.70;;;;;;4995841;28;20497;-69
2022/05/06 15:08:42;;;;;;;0.80;0.80;;;20.10;57.60;;;;;;4995761;28;20446;-68
2022/05/06 15:11:11;;;;;;;0.80;0.80;;;19.80;57.40;;;;;;4995858;28;20449;-70
2022/05/06 15:13:39;;;;;;;0.80;0.80;;;19.90;58.80;;;;;;4995694;28;20464;-69
2022/05/06 15:16:07;;;;;;;0.83;0.73;;;19.80;59.30;;;;;;4996545;28;20591;-69
2022/05/06 15:21:18;;;;;;;0.77;0.70;;;19.60;59.20;;;;;;4995594;28;20488;-71
2022/05/06 15:23:48;;;;;;;0.70;0.70;;;19.60;59.50;;;;;;4995670;28;20491;-68
2022/05/06 15:26:17;;;;;;;0.80;0.80;;;19.80;58.50;;;;;;4995611;28;20580;-68
2022/05/06 15:28:44;;;;;;;0.80;0.80;;;19.90;58.50;;;;;;4995440;28;20500;-68
2022/05/06 15:31:11;;;;;;;0.70;0.70;;;19.90;57.40;;;;;;4995142;28;20834;-68
2022/05/06 15:33:38;;;;;;;0.80;0.70;;;19.70;58.50;;;;;;4995361;28;20824;-68
2022/05/06 15:36:05;;;;;;;0.93;0.83;;;19.80;57.90;;;;;;4995167;28;20492;-69
2022/05/06 15:38:33;;;;;;;0.73;0.73;;;19.70;58.90;;;;;;4995272;28;20456;-69
2022/05/06 15:41:00;;;;;;;0.80;0.80;;;19.90;58.60;;;;;;4995269;28;20449;-69
2022/05/06 15:43:28;;;;;;;1.13;1.03;;;19.90;58.20;;;;;;4995187;28;20543;-69
2022/05/06 15:45:55;;;;;;;0.70;0.70;;;19.70;58.30;;;;;;4995184;28;20535;-68
2022/05/06 15:48:21;;;;;;;1.07;0.90;;;19.70;58.30;;;;;;4994899;28;20506;-68
2022/05/06 15:50:48;;;;;;;1.00;0.90;;;19.60;58.10;;;;;;4994767;28;20948;-68
2022/05/06 15:53:15;;;;;;;0.70;0.70;;;19.80;58.70;;;;;;4994736;28;20507;-69
2022/05/06 15:55:42;;;;;;;0.70;0.70;;;19.90;58.90;;;;;;4994938;28;20472;-68
2022/05/06 15:58:09;;;;;;;0.90;0.80;;;20.00;58.50;;;;;;4994872;28;20485;-69
2022/05/06 16:00:36;;;;;;;1.27;1.10;;;20.10;58.50;;;;;;4994843;28;20507;-69
2022/05/06 16:03:03;;;;;;;0.70;0.70;;;20.20;58.30;;;;;;4994857;28;20453;-69
2022/05/06 16:05:30;;;;;;;0.70;0.70;;;20.30;58.90;;;;;;4995732;28;20972;-69
2022/05/06 16:07:56;;;;;;;1.10;0.80;;;20.30;58.90;;;;;;4996814;28;20530;-68
2022/05/06 16:10:25;;;;;;;0.73;0.73;;;20.20;58.10;;;;;;4995218;28;20936;-68
2022/05/06 16:12:52;;;;;;;0.73;0.73;;;20.20;57.40;;;;;;4995689;28;20508;-68
2022/05/06 16:15:21;;;;;;;0.73;0.67;;;20.20;57.90;;;;;;4995302;28;20469;-69
2022/05/06 16:17:50;;;;;;;0.80;0.80;;;20.10;58.00;;;;;;4994172;28;20838;-69
2022/05/06 16:20:17;;;;;;;1.00;0.80;;;19.80;58.10;;;;;;4994089;28;20955;-68
2022/05/06 16:22:44;;;;;;;0.80;0.80;;;19.90;58.20;;;;;;4994426;28;20441;-69
2022/05/06 16:25:11;;;;;;;0.90;0.90;;;20.00;58.70;;;;;;4994366;28;20483;-68
2022/05/06 16:27:39;;;;;;;1.23;0.77;;;19.90;58.40;;;;;;4994504;28;20480;-68
2022/05/06 16:30:07;;;;;;;1.30;0.80;;;19.90;58.80;;;;;;4994361;28;20539;-68
2022/05/06 16:32:34;;;;;;;1.03;0.80;;;19.90;58.60;;;;;;4994510;28;20929;-69
2022/05/06 16:37:46;;;;;;;0.70;0.60;;;19.70;59.60;;;;;;4994205;28;20469;-69
2022/05/06 16:40:14;;;;;;;0.90;0.90;;;19.50;60.00;;;;;;4994250;28;20544;-68